Time;durP1;ratioP1;P1;durP2;ratioP2;P2;SDS_P1;SDS_P2;PMS_P1;PMS_P2;Temp;Humidity;BMP_temperature;BMP_pressure;BME280_temperature;BME280_humidity;BME280_pressure;Samples;Min_cycle;Max_cycle;Signal;HPM_P1;HPM_P2
2021/05/21 00:02:03;;;;;;;3.40;2.20;;;9.60;99.90;;;;;;6216781;23;20021;-93
2021/05/21 00:04:48;;;;;;;;;;;;;;;;;;;;;
2021/05/21 00:07:16;;;;;;;4.45;1.70;;;9.70;99.90;;;;;;6214383;23;20028;-91
2021/05/21 00:09:43;;;;;;;6.85;1.90;;;9.60;99.90;;;;;;6215227;23;20025;-91
2021/05/21 00:12:10;;;;;;;1.98;1.70;;;9.70;99.90;;;;;;6216645;23;20025;-90
2021/05/21 00:14:39;;;;;;;2.15;1.90;;;9.60;99.90;;;;;;6215361;23;20025;-91
2021/05/21 00:17:06;;;;;;;2.25;1.83;;;9.70;99.90;;;;;;6189666;23;20021;-91
2021/05/21 00:19:35;;;;;;;2.30;1.90;;;9.70;99.90;;;;;;6216404;23;20024;-92
2021/05/21 00:22:05;;;;;;;2.55;1.73;;;9.60;99.90;;;;;;6216066;23;20017;-92
2021/05/21 00:24:37;;;;;;;3.05;2.10;;;9.60;99.90;;;;;;6218811;23;20044;-91
2021/05/21 00:27:10;;;;;;;3.25;1.83;;;9.60;99.90;;;;;;6191851;23;20021;-93
2021/05/21 00:29:36;;;;;;;2.15;1.85;;;9.60;99.90;;;;;;6219865;23;20086;-91
2021/05/21 00:32:05;;;;;;;2.10;1.90;;;9.60;99.90;;;;;;6194579;23;20021;-92
2021/05/21 00:34:32;;;;;;;1.98;1.88;;;9.60;99.90;;;;;;6218797;23;20020;-92
2021/05/21 00:37:13;;;;;;;3.83;1.88;;;9.60;99.90;;;;;;6205712;23;20051;-92
2021/05/21 00:39:40;;;;;;;7.80;1.85;;;9.60;99.90;;;;;;6219869;23;20078;-91
2021/05/21 00:42:15;;;;;;;3.50;2.10;;;9.60;99.90;;;;;;6198033;23;20071;-93
2021/05/21 00:44:51;;;;;;;5.32;2.20;;;9.60;99.90;;;;;;6201363;23;20016;-92
2021/05/21 00:47:26;;;;;;;2.90;2.05;;;9.60;99.90;;;;;;6225190;23;20020;-92
2021/05/21 00:49:53;;;;;;;2.28;1.55;;;9.60;99.90;;;;;;6195938;23;20024;-91
2021/05/21 00:52:42;;;;;;;3.47;1.77;;;9.70;99.90;;;;;;6214978;23;20094;-92
2021/05/21 00:55:13;;;;;;;3.83;1.50;;;9.70;99.90;;;;;;6214688;23;20066;-92
2021/05/21 00:58:06;;;;;;;1.90;1.67;;;9.70;99.90;;;;;;6214966;23;20099;-90
2021/05/21 01:00:33;;;;;;;1.77;1.67;;;9.70;99.90;;;;;;6200813;23;20020;-92
2021/05/21 01:03:28;;;;;;;3.38;1.48;;;9.80;99.90;;;;;;6214519;23;20120;-89
2021/05/21 01:05:55;;;;;;;2.65;1.55;;;9.80;99.90;;;;;;6189400;23;20025;-92
2021/05/21 01:08:26;;;;;;;2.92;1.55;;;9.80;99.90;;;;;;6215013;23;20016;-90
2021/05/21 01:11:07;;;;;;;2.03;1.50;;;9.80;99.90;;;;;;6192041;23;20021;-90
2021/05/21 01:13:44;;;;;;;5.10;2.03;;;9.80;99.90;;;;;;6215501;23;20020;-92
2021/05/21 01:16:15;;;;;;;2.92;1.40;;;9.80;99.90;;;;;;6189227;23;20016;-91
2021/05/21 01:18:45;;;;;;;2.30;1.60;;;9.80;99.90;;;;;;6214481;23;20147;-93
2021/05/21 01:21:50;;;;;;;2.38;1.42;;;9.90;99.90;;;;;;6215255;23;20034;-89
2021/05/21 01:24:20;;;;;;;4.05;1.52;;;9.90;99.90;;;;;;6215763;23;20024;-91
2021/05/21 01:26:48;;;;;;;2.92;1.60;;;9.90;99.90;;;;;;6214605;23;20020;-90
2021/05/21 01:29:27;;;;;;;2.28;1.67;;;9.90;99.90;;;;;;6188592;23;20502;-92
2021/05/21 01:32:04;;;;;;;2.28;1.55;;;9.90;99.90;;;;;;6189583;23;20091;-91
2021/05/21 01:34:38;;;;;;;2.80;1.40;;;9.90;99.90;;;;;;6214466;23;20024;-92
2021/05/21 01:37:32;;;;;;;2.03;1.40;;;9.90;99.90;;;;;;6189038;23;20471;-91
2021/05/21 01:40:51;;;;;;;1.67;1.42;;;9.80;99.90;;;;;;6215254;23;20036;-92
2021/05/21 01:43:16;;;;;;;2.15;1.80;;;9.80;99.90;;;;;;6214038;23;20147;-93
2021/05/21 01:45:43;;;;;;;2.67;1.58;;;9.70;99.90;;;;;;6214359;23;20039;-90
2021/05/21 01:48:11;;;;;;;6.30;1.52;;;9.70;99.90;;;;;;6189963;23;20395;-91
2021/05/21 01:50:41;;;;;;;1.75;1.42;;;9.70;99.90;;;;;;6215140;23;20060;-91
2021/05/21 01:53:13;;;;;;;6.75;1.90;;;9.70;99.90;;;;;;6187099;23;20091;-91
2021/05/21 01:56:01;;;;;;;1.95;1.75;;;9.60;99.90;;;;;;6188922;23;20020;-91
2021/05/21 01:58:38;;;;;;;2.85;1.90;;;9.60;99.90;;;;;;6207720;23;20020;-92
2021/05/21 02:01:09;;;;;;;1.77;1.63;;;9.60;99.90;;;;;;6189579;23;20087;-91
2021/05/21 02:03:38;;;;;;;1.67;1.40;;;9.50;99.90;;;;;;6213356;23;20047;-91
2021/05/21 02:06:05;;;;;;;2.08;1.60;;;9.50;99.90;;;;;;6188182;23;20067;-91
2021/05/21 02:08:32;;;;;;;1.92;1.73;;;9.50;99.90;;;;;;6213065;23;20282;-91
2021/05/21 02:10:59;;;;;;;2.33;1.63;;;9.40;99.90;;;;;;6214509;23;20020;-90
2021/05/21 02:13:47;;;;;;;1.92;1.52;;;9.30;99.90;;;;;;6213491;23;20021;-91
2021/05/21 02:16:14;;;;;;;2.63;1.52;;;9.30;99.90;;;;;;6213671;23;20483;-91
2021/05/21 02:18:52;;;;;;;2.70;1.90;;;9.30;99.90;;;;;;6214787;23;20059;-91
2021/05/21 02:21:36;;;;;;;1.67;1.58;;;9.20;99.90;;;;;;6215400;23;20092;-91
2021/05/21 02:24:06;;;;;;;1.83;1.40;;;9.20;99.90;;;;;;6214736;23;20662;-92
2021/05/21 02:27:14;;;;;;;;;;;;;;;;;;;;;
2021/05/21 02:29:45;;;;;;;3.65;1.58;;;9.30;99.90;;;;;;6169246;23;20142;-92
2021/05/21 02:32:38;;;;;;;1.88;1.70;;;9.30;99.90;;;;;;6188699;23;20411;-92
2021/05/21 02:35:11;;;;;;;2.65;1.50;;;9.30;99.90;;;;;;6213779;23;20131;-92
2021/05/21 02:37:46;;;;;;;1.45;1.35;;;9.30;99.90;;;;;;6213658;23;20510;-92
2021/05/21 02:40:16;;;;;;;1.90;1.30;;;9.40;99.90;;;;;;6186953;23;20020;-92
2021/05/21 02:42:51;;;;;;;2.47;1.48;;;9.30;99.90;;;;;;6213558;23;20028;-92
2021/05/21 02:46:03;;;;;;;2.83;1.42;;;9.30;99.90;;;;;;6191450;23;20024;-92
2021/05/21 02:48:51;;;;;;;3.80;1.20;;;9.30;99.90;;;;;;6123822;23;20022;-91
2021/05/21 02:51:30;;;;;;;1.75;1.38;;;9.30;99.90;;;;;;6197833;23;20086;-93
2021/05/21 02:54:40;;;;;;;1.95;1.50;;;9.30;99.90;;;;;;6214961;23;20325;-89
2021/05/21 02:58:12;;;;;;;3.90;1.50;;;9.30;99.90;;;;;;6213690;23;20017;-91
2021/05/21 03:00:40;;;;;;;3.03;1.52;;;9.30;99.90;;;;;;6215009;23;20020;-90
2021/05/21 03:03:09;;;;;;;1.85;1.40;;;9.20;99.90;;;;;;6215607;23;20032;-91
2021/05/21 03:05:36;;;;;;;3.17;1.52;;;9.20;99.90;;;;;;6190763;23;20058;-89
2021/05/21 03:08:03;;;;;;;2.53;1.20;;;9.20;99.90;;;;;;6215638;23;20021;-90
2021/05/21 03:10:30;;;;;;;1.75;1.48;;;9.30;99.90;;;;;;6188802;23;20075;-91
2021/05/21 03:13:03;;;;;;;2.03;1.20;;;9.30;99.90;;;;;;6215636;23;20021;-92
2021/05/21 03:15:30;;;;;;;3.58;1.50;;;9.30;99.90;;;;;;6216593;23;20017;-91
2021/05/21 03:17:59;;;;;;;4.68;1.20;;;9.40;99.90;;;;;;6227204;23;20024;-89
2021/05/21 03:20:26;;;;;;;1.55;1.45;;;9.40;99.90;;;;;;6226402;23;20068;-91
2021/05/21 03:22:56;;;;;;;1.60;1.23;;;9.40;99.90;;;;;;6224886;23;20028;-90
2021/05/21 03:25:24;;;;;;;3.25;1.20;;;9.50;99.90;;;;;;6223072;23;20032;-92
2021/05/21 03:27:51;;;;;;;2.22;1.52;;;9.50;99.90;;;;;;6170682;23;20031;-90
2021/05/21 03:30:22;;;;;;;1.33;1.20;;;9.50;99.90;;;;;;6216892;23;20024;-89
2021/05/21 03:32:52;;;;;;;1.98;1.27;;;9.50;99.90;;;;;;6215797;23;20666;-91
2021/05/21 03:35:35;;;;;;;1.98;1.33;;;9.40;99.90;;;;;;6214085;23;20035;-91
2021/05/21 03:38:04;;;;;;;2.67;1.20;;;9.40;99.90;;;;;;6215439;23;20020;-91
2021/05/21 03:40:58;;;;;;;3.58;1.70;;;9.40;99.90;;;;;;6217032;23;20447;-91
2021/05/21 03:43:52;;;;;;;1.33;1.20;;;9.40;99.90;;;;;;6211414;23;20021;-88
2021/05/21 03:46:19;;;;;;;1.63;1.10;;;9.30;99.90;;;;;;6216477;23;20020;-92
2021/05/21 03:48:50;;;;;;;4.57;1.40;;;9.30;99.90;;;;;;6217243;23;20081;-93
2021/05/21 03:51:21;;;;;;;3.85;1.30;;;9.30;99.90;;;;;;6191927;23;20032;-90
2021/05/21 03:53:48;;;;;;;1.55;1.30;;;9.30;99.90;;;;;;6192220;23;20449;-93
2021/05/21 03:56:16;;;;;;;1.60;1.50;;;9.40;99.90;;;;;;6216113;23;20025;-92
2021/05/21 03:59:01;;;;;;;4.70;1.58;;;9.40;99.90;;;;;;6191921;23;20024;-92
2021/05/21 04:01:30;;;;;;;1.40;1.23;;;9.50;99.90;;;;;;6216719;23;20020;-91
2021/05/21 04:04:06;;;;;;;2.43;1.30;;;9.50;99.90;;;;;;6216589;23;20029;-91
2021/05/21 04:06:33;;;;;;;2.83;1.20;;;9.60;99.90;;;;;;6216177;23;20248;-91
2021/05/21 04:09:07;;;;;;;3.38;1.30;;;9.70;99.90;;;;;;6216353;23;20017;-92
2021/05/21 04:11:38;;;;;;;2.08;1.10;;;9.80;99.90;;;;;;6217527;23;20017;-92
2021/05/21 04:14:07;;;;;;;2.33;1.15;;;9.90;99.90;;;;;;6186618;23;20020;-87
2021/05/21 04:16:34;;;;;;;1.10;1.00;;;9.90;99.90;;;;;;6213239;23;20047;-88
2021/05/21 04:19:01;;;;;;;1.17;0.98;;;9.90;99.90;;;;;;6212714;23;20027;-86
2021/05/21 04:21:32;;;;;;;2.97;1.48;;;9.90;99.90;;;;;;6188908;23;20016;-88
2021/05/21 04:23:59;;;;;;;2.42;1.70;;;9.90;99.90;;;;;;6213632;23;20048;-87
2021/05/21 04:26:28;;;;;;;1.48;1.02;;;10.00;99.90;;;;;;6216404;23;20025;-86
2021/05/21 04:28:55;;;;;;;1.58;1.17;;;10.10;99.90;;;;;;6213072;23;20048;-86
2021/05/21 04:31:22;;;;;;;1.90;1.27;;;10.10;99.90;;;;;;6191009;23;20071;-86
2021/05/21 04:33:50;;;;;;;1.38;1.20;;;10.20;99.90;;;;;;6213549;23;20102;-87
2021/05/21 04:36:21;;;;;;;9.00;1.40;;;10.10;99.90;;;;;;6186297;23;20054;-85
2021/05/21 04:38:48;;;;;;;1.75;1.30;;;10.20;99.90;;;;;;6211376;23;20063;-86
2021/05/21 04:41:17;;;;;;;1.88;1.10;;;10.20;99.90;;;;;;6212871;23;20112;-88
2021/05/21 04:43:46;;;;;;;2.10;1.40;;;10.20;99.90;;;;;;6186444;23;20016;-86
2021/05/21 04:46:14;;;;;;;3.22;1.05;;;10.20;99.90;;;;;;6186024;23;20436;-88
2021/05/21 04:48:43;;;;;;;1.65;1.20;;;10.30;99.90;;;;;;6211899;23;20028;-87
2021/05/21 04:51:11;;;;;;;1.50;1.20;;;10.40;99.90;;;;;;6212346;23;20055;-88
2021/05/21 04:53:40;;;;;;;1.45;1.10;;;10.50;99.90;;;;;;6213664;23;20123;-91
2021/05/21 04:56:08;;;;;;;0.95;0.85;;;10.60;99.90;;;;;;6214427;23;20151;-87
2021/05/21 04:58:39;;;;;;;2.47;1.20;;;10.60;99.90;;;;;;6213887;23;20069;-87
2021/05/21 05:01:06;;;;;;;3.80;1.10;;;10.70;99.90;;;;;;6213801;23;20048;-90
2021/05/21 05:03:32;;;;;;;2.17;1.00;;;10.70;99.90;;;;;;6165045;23;20048;-90
2021/05/21 05:05:59;;;;;;;2.78;0.90;;;10.80;99.90;;;;;;6214281;23;20103;-92
2021/05/21 05:08:29;;;;;;;1.10;1.00;;;10.80;99.90;;;;;;6163061;23;20087;-90
2021/05/21 05:10:56;;;;;;;2.55;0.90;;;10.90;99.90;;;;;;6214671;23;20083;-90
2021/05/21 05:13:23;;;;;;;1.63;0.93;;;10.90;99.90;;;;;;6214804;23;20663;-90
2021/05/21 05:15:50;;;;;;;2.42;1.17;;;11.00;99.90;;;;;;6214407;23;20051;-90
2021/05/21 05:18:19;;;;;;;2.85;1.10;;;11.00;99.90;;;;;;6218601;23;20024;-91
2021/05/21 05:20:47;;;;;;;3.55;0.98;;;11.10;99.90;;;;;;6215489;23;20388;-90
2021/05/21 05:23:19;;;;;;;1.25;0.90;;;11.20;99.90;;;;;;6189268;23;20020;-91
2021/05/21 05:25:47;;;;;;;2.22;1.00;;;11.30;99.90;;;;;;6163749;23;20543;-91
2021/05/21 05:28:16;;;;;;;2.10;1.02;;;11.40;99.90;;;;;;6214832;23;20024;-91
2021/05/21 05:30:43;;;;;;;2.45;1.00;;;11.50;99.90;;;;;;6188028;23;20082;-89
2021/05/21 05:33:11;;;;;;;1.58;1.02;;;11.60;99.90;;;;;;6214498;23;20187;-88
2021/05/21 05:35:41;;;;;;;3.33;0.90;;;11.60;99.90;;;;;;6191521;23;20056;-90
2021/05/21 05:38:10;;;;;;;2.17;0.95;;;11.70;99.90;;;;;;6212917;23;20048;-88
2021/05/21 05:40:38;;;;;;;2.53;1.10;;;11.70;99.90;;;;;;6214872;23;20095;-91
2021/05/21 05:47:48;;;;;;;;;;;;;;;;;;;;;
2021/05/21 05:51:15;;;;;;;2.72;0.90;;;11.70;99.90;;;;;;6224368;23;20312;-93
2021/05/21 05:53:45;;;;;;;2.08;1.38;;;11.70;99.90;;;;;;6189365;23;20016;-92
2021/05/21 05:56:31;;;;;;;3.03;1.00;;;11.70;99.90;;;;;;6135681;23;20026;-91
2021/05/21 05:58:58;;;;;;;1.20;1.10;;;11.80;99.90;;;;;;6129034;23;20026;-92
2021/05/21 06:01:37;;;;;;;3.25;1.30;;;11.80;99.90;;;;;;6211691;23;20024;-91
2021/05/21 06:04:05;;;;;;;2.42;1.13;;;11.80;99.90;;;;;;6187705;23;20024;-90
2021/05/21 06:06:35;;;;;;;2.30;1.00;;;11.80;99.90;;;;;;6214149;23;20020;-90
2021/05/21 06:09:04;;;;;;;1.33;1.10;;;11.80;99.90;;;;;;6213551;23;20468;-90
2021/05/21 06:11:38;;;;;;;1.45;1.17;;;11.80;99.90;;;;;;6190944;23;20021;-91
2021/05/21 06:14:06;;;;;;;6.30;1.10;;;11.90;99.90;;;;;;6214330;23;20107;-88
2021/05/21 06:16:33;;;;;;;1.85;0.93;;;12.00;99.90;;;;;;6215081;23;20030;-91
2021/05/21 06:19:02;;;;;;;4.07;1.02;;;12.00;99.90;;;;;;6214414;23;20432;-88
2021/05/21 06:21:31;;;;;;;2.08;1.00;;;12.10;99.90;;;;;;6188788;23;20351;-90
2021/05/21 06:24:10;;;;;;;4.78;1.17;;;12.20;99.90;;;;;;6190404;23;20377;-91
2021/05/21 06:27:14;;;;;;;2.05;0.85;;;12.30;99.30;;;;;;6213565;23;20020;-89
2021/05/21 06:29:34;;;;;;;1.02;0.80;;;12.40;98.50;;;;;;6213103;23;20096;-88
2021/05/21 06:32:01;;;;;;;2.90;0.88;;;12.40;98.10;;;;;;6187323;23;20027;-87
2021/05/21 06:34:32;;;;;;;3.13;1.15;;;12.40;97.60;;;;;;6213524;23;20048;-88
2021/05/21 06:36:59;;;;;;;1.63;0.95;;;12.40;97.70;;;;;;6188124;23;20458;-88
2021/05/21 06:39:28;;;;;;;2.47;1.05;;;12.50;95.70;;;;;;6213950;23;20025;-88
2021/05/21 06:41:55;;;;;;;2.92;0.85;;;12.60;95.70;;;;;;6200410;23;20016;-91
2021/05/21 06:44:42;;;;;;;2.72;0.80;;;12.50;96.30;;;;;;6187932;23;20062;-91
2021/05/21 06:47:33;;;;;;;2.58;1.50;;;12.50;95.60;;;;;;6065599;23;20055;-87
2021/05/21 06:50:40;;;;;;;0.85;0.77;;;12.50;96.00;;;;;;6072528;23;20142;-92
2021/05/21 06:53:15;;;;;;;1.63;1.10;;;12.60;95.10;;;;;;6055957;23;20027;-91
2021/05/21 06:55:52;;;;;;;2.17;0.95;;;12.60;94.90;;;;;;6065529;23;20027;-89
2021/05/21 06:58:25;;;;;;;2.17;0.82;;;12.60;95.50;;;;;;6041023;23;20019;-89
2021/05/21 07:00:59;;;;;;;1.48;1.02;;;12.70;95.20;;;;;;6064515;23;20022;-90
2021/05/21 07:03:31;;;;;;;1.95;1.00;;;12.80;94.60;;;;;;6063796;23;20115;-89
2021/05/21 07:06:13;;;;;;;4.60;1.08;;;12.90;94.00;;;;;;6137004;23;20031;-90
2021/05/21 07:08:44;;;;;;;1.20;0.85;;;12.90;93.80;;;;;;6187605;23;20024;-88
2021/05/21 07:11:11;;;;;;;1.10;0.80;;;12.90;94.40;;;;;;6214542;23;20087;-89
2021/05/21 07:13:38;;;;;;;2.15;1.10;;;12.90;93.50;;;;;;6219843;23;20110;-89
2021/05/21 07:16:05;;;;;;;2.03;1.10;;;13.00;93.50;;;;;;6229335;23;20016;-90
2021/05/21 07:18:37;;;;;;;2.95;1.08;;;13.10;93.30;;;;;;6202203;23;20020;-88
2021/05/21 07:21:08;;;;;;;3.50;1.00;;;13.20;91.70;;;;;;6172813;23;20021;-89
2021/05/21 07:23:40;;;;;;;0.85;0.85;;;13.30;92.50;;;;;;6191057;23;20017;-89
2021/05/21 07:26:07;;;;;;;1.83;0.95;;;13.30;92.70;;;;;;6191037;23;20099;-93
2021/05/21 07:28:34;;;;;;;2.70;0.90;;;13.40;92.40;;;;;;6190650;23;20032;-92
2021/05/21 07:31:01;;;;;;;2.03;0.90;;;13.40;91.60;;;;;;6215559;23;20304;-93
2021/05/21 07:33:32;;;;;;;1.00;0.90;;;13.40;91.50;;;;;;6189787;23;20072;-89
2021/05/21 07:36:05;;;;;;;1.00;0.98;;;13.50;92.00;;;;;;6217009;23;20028;-90
2021/05/21 07:38:51;;;;;;;;;;;;;;;;;;;;;
2021/05/21 07:41:26;;;;;;;1.90;1.20;;;13.40;92.20;;;;;;6217696;23;20097;-89
2021/05/21 07:43:57;;;;;;;2.70;0.80;;;13.40;92.50;;;;;;6194818;23;20303;-90
2021/05/21 07:46:28;;;;;;;1.90;0.90;;;13.50;92.40;;;;;;6220344;23;20080;-91
2021/05/21 07:48:57;;;;;;;3.67;1.02;;;13.60;92.30;;;;;;6219205;23;20111;-92
2021/05/21 07:51:27;;;;;;;3.78;0.80;;;13.60;91.90;;;;;;6191342;23;20121;-93
2021/05/21 07:53:54;;;;;;;2.38;1.05;;;13.70;91.60;;;;;;6192720;23;20120;-91
2021/05/21 07:56:54;;;;;;;2.00;1.05;;;13.80;90.90;;;;;;6168778;23;20032;-92
2021/05/21 07:59:23;;;;;;;1.92;1.00;;;13.90;90.90;;;;;;6185396;23;20432;-88
2021/05/21 08:02:03;;;;;;;2.28;1.00;;;13.90;90.90;;;;;;6215529;23;20020;-92
2021/05/21 08:04:31;;;;;;;1.50;0.88;;;13.90;90.90;;;;;;6215203;23;20031;-89
2021/05/21 08:06:59;;;;;;;2.80;0.95;;;13.90;91.90;;;;;;6215597;23;20494;-88
2021/05/21 08:09:50;;;;;;;2.85;1.10;;;13.90;91.30;;;;;;6191650;23;20031;-89
2021/05/21 08:12:18;;;;;;;3.20;1.00;;;13.90;92.00;;;;;;6215758;23;20027;-89
2021/05/21 08:14:47;;;;;;;5.00;0.98;;;13.90;91.90;;;;;;6215074;23;20062;-91
2021/05/21 08:17:18;;;;;;;1.92;0.82;;;13.90;92.20;;;;;;6214479;23;20467;-89
2021/05/21 08:19:48;;;;;;;1.58;1.10;;;13.90;92.60;;;;;;6214825;23;20027;-89
2021/05/21 08:22:17;;;;;;;1.35;0.88;;;13.90;93.10;;;;;;6165365;23;20020;-88
2021/05/21 08:24:47;;;;;;;1.58;1.30;;;13.90;93.90;;;;;;6214724;23;20028;-93
2021/05/21 08:27:17;;;;;;;2.92;0.98;;;13.90;94.30;;;;;;6192880;23;20025;-92
2021/05/21 08:29:45;;;;;;;1.15;0.88;;;14.00;93.80;;;;;;6193588;23;20012;-90
2021/05/21 08:32:48;;;;;;;;;;;;;;;;;;;;;
2021/05/21 08:36:10;;;;;;;4.45;1.20;;;14.00;94.20;;;;;;6196599;23;20072;-92
2021/05/21 08:38:48;;;;;;;2.50;0.90;;;14.10;90.90;;;;;;6216050;23;20028;-93
2021/05/21 08:41:25;;;;;;;4.15;0.75;;;14.10;91.90;;;;;;6193033;23;20040;-91
2021/05/21 08:44:45;;;;;;;2.88;0.90;;;14.20;90.90;;;;;;6069021;23;20023;-92
2021/05/21 08:47:51;;;;;;;;;;;;;;;;;;;;;
2021/05/21 08:51:11;;;;;;;2.00;1.00;;;14.30;90.70;;;;;;6070069;23;20022;-93
2021/05/21 08:54:34;;;;;;;;;;;;;;;;;;;;;
2021/05/21 09:00:31;;;;;;;7.53;0.90;;;14.20;91.10;;;;;;5954523;24;20012;-93
2021/05/21 09:03:53;;;;;;;1.25;1.00;;;14.10;91.00;;;;;;5880152;24;20059;-91
2021/05/21 09:06:38;;;;;;;2.67;0.98;;;14.00;91.20;;;;;;5910145;24;20049;-86
2021/05/21 09:09:09;;;;;;;5.30;1.00;;;14.00;91.20;;;;;;5920741;24;20069;-90
2021/05/21 09:11:45;;;;;;;1.17;1.00;;;14.00;91.70;;;;;;5917955;24;20029;-92
2021/05/21 09:14:30;;;;;;;2.53;1.25;;;14.00;91.60;;;;;;5900060;24;20039;-91
2021/05/21 09:17:41;;;;;;;1.85;1.00;;;14.00;91.60;;;;;;5903378;24;20049;-91
2021/05/21 09:20:38;;;;;;;3.03;0.90;;;14.10;93.30;;;;;;5888968;24;20026;-92
2021/05/21 09:24:28;;;;;;;;;;;;;;;;;;;;;
2021/05/21 09:27:18;;;;;;;4.85;1.00;;;14.00;92.20;;;;;;5927207;24;20056;-93
2021/05/21 09:29:52;;;;;;;3.13;1.00;;;14.00;93.40;;;;;;5930822;24;20025;-91
2021/05/21 09:32:45;;;;;;;3.25;1.08;;;14.10;93.10;;;;;;5932440;24;20025;-88
2021/05/21 09:35:34;;;;;;;2.88;0.88;;;14.00;93.90;;;;;;6013714;23;20019;-90
2021/05/21 09:38:13;;;;;;;4.15;0.98;;;14.10;94.40;;;;;;6089727;23;20425;-88
2021/05/21 09:40:44;;;;;;;1.42;0.65;;;14.00;94.50;;;;;;6099160;23;20026;-89
2021/05/21 09:43:11;;;;;;;4.45;1.00;;;14.00;95.90;;;;;;6071803;23;20022;-88
2021/05/21 09:45:41;;;;;;;1.48;1.05;;;14.00;95.30;;;;;;6095975;23;20431;-90
2021/05/21 09:48:11;;;;;;;4.38;1.40;;;13.90;95.40;;;;;;6094022;23;20049;-91
2021/05/21 09:50:41;;;;;;;1.65;0.75;;;13.90;95.90;;;;;;6071178;23;20026;-90
2021/05/21 09:53:11;;;;;;;0.82;0.80;;;13.70;95.40;;;;;;6093334;23;20109;-87
2021/05/21 09:55:57;;;;;;;0.63;0.50;;;13.60;96.60;;;;;;6069703;23;20041;-89
2021/05/21 09:58:47;;;;;;;0.70;0.70;;;13.60;96.00;;;;;;6181241;23;20372;-89
2021/05/21 10:01:21;;;;;;;1.77;0.75;;;13.50;97.20;;;;;;6189543;23;20090;-88
2021/05/21 10:04:03;;;;;;;6.55;1.30;;;13.40;97.50;;;;;;6214163;23;20039;-94
2021/05/21 10:06:42;;;;;;;4.05;0.82;;;13.40;98.00;;;;;;6192296;23;20046;-92
2021/05/21 10:09:40;;;;;;;1.35;0.70;;;13.40;98.10;;;;;;6192572;23;20388;-90
2021/05/21 10:12:08;;;;;;;0.88;0.85;;;13.30;98.60;;;;;;6190922;23;20032;-89
2021/05/21 10:14:51;;;;;;;1.75;0.80;;;13.30;99.90;;;;;;6191995;23;20032;-90
2021/05/21 10:17:36;;;;;;;3.42;0.90;;;13.30;99.90;;;;;;6097447;23;20408;-90
2021/05/21 10:20:24;;;;;;;1.52;0.90;;;13.20;99.90;;;;;;6098425;23;20046;-92
2021/05/21 10:23:04;;;;;;;2.67;1.02;;;13.20;99.90;;;;;;6097997;23;20022;-92
2021/05/21 10:25:32;;;;;;;1.85;1.00;;;13.20;99.90;;;;;;6110416;23;20085;-89
2021/05/21 10:28:08;;;;;;;2.53;0.90;;;13.20;99.90;;;;;;6109583;23;20010;-89
2021/05/21 10:30:38;;;;;;;1.52;0.80;;;13.30;99.90;;;;;;6110386;23;20017;-87
2021/05/21 10:33:31;;;;;;;2.72;1.10;;;13.30;99.90;;;;;;6101354;23;20121;-92
2021/05/21 10:36:20;;;;;;;0.70;0.70;;;13.40;99.90;;;;;;6096493;23;20029;-91
2021/05/21 10:39:05;;;;;;;2.65;0.93;;;13.40;99.90;;;;;;6095754;23;20035;-90
2021/05/21 10:41:55;;;;;;;0.90;0.88;;;13.40;99.90;;;;;;6070748;23;20028;-89
2021/05/21 10:44:28;;;;;;;3.05;1.02;;;13.40;99.90;;;;;;6093134;23;20022;-89
2021/05/21 10:47:23;;;;;;;1.20;0.80;;;13.40;99.90;;;;;;6093539;23;20033;-89
2021/05/21 10:50:19;;;;;;;1.13;0.80;;;13.30;99.90;;;;;;6098430;23;20049;-94
2021/05/21 10:53:04;;;;;;;2.22;1.10;;;13.40;99.90;;;;;;6101522;23;20328;-93
2021/05/21 10:56:13;;;;;;;0.73;0.73;;;13.40;99.90;;;;;;6167458;23;20103;-88
2021/05/21 10:58:56;;;;;;;2.42;1.02;;;13.40;99.90;;;;;;6149624;23;20029;-93
2021/05/21 11:01:33;;;;;;;1.85;0.90;;;13.40;99.90;;;;;;6215962;23;20066;-92
2021/05/21 11:05:11;;;;;;;3.42;0.93;;;13.50;99.90;;;;;;6102337;23;20106;-92
2021/05/21 11:08:02;;;;;;;1.58;0.90;;;13.60;99.90;;;;;;6054985;23;20441;-92
2021/05/21 11:10:39;;;;;;;6.20;1.02;;;13.50;99.90;;;;;;6064160;23;20031;-93
2021/05/21 11:13:15;;;;;;;1.10;0.80;;;13.60;99.90;;;;;;6063373;23;20023;-89
2021/05/21 11:15:47;;;;;;;2.40;0.90;;;13.60;99.90;;;;;;6091848;23;20018;-88
2021/05/21 11:18:16;;;;;;;2.05;0.98;;;13.70;99.90;;;;;;6120900;23;20097;-90
2021/05/21 11:21:02;;;;;;;1.63;0.90;;;13.70;99.90;;;;;;6120953;23;20052;-88
2021/05/21 11:23:54;;;;;;;2.47;0.80;;;13.90;99.90;;;;;;6119850;23;20101;-87
2021/05/21 11:26:26;;;;;;;0.80;0.70;;;13.90;99.90;;;;;;6120965;23;20456;-89
2021/05/21 11:29:02;;;;;;;2.08;0.90;;;13.90;98.80;;;;;;6097290;23;20342;-88
2021/05/21 11:31:29;;;;;;;3.30;0.90;;;14.00;98.50;;;;;;6097830;23;20097;-89
2021/05/21 11:33:59;;;;;;;1.73;0.95;;;14.10;98.50;;;;;;6099234;23;20096;-85
2021/05/21 11:36:33;;;;;;;3.42;1.15;;;14.30;97.30;;;;;;6205942;23;20025;-88
2021/05/21 11:39:01;;;;;;;4.15;0.98;;;14.50;97.10;;;;;;6186724;23;20051;-89
2021/05/21 11:41:36;;;;;;;0.85;0.70;;;14.50;94.60;;;;;;6213177;23;20029;-88
2021/05/21 11:44:11;;;;;;;4.60;1.17;;;14.40;94.70;;;;;;6212798;23;20075;-87
2021/05/21 11:46:40;;;;;;;0.80;0.70;;;14.50;95.60;;;;;;6213483;23;20059;-87
2021/05/21 11:49:12;;;;;;;2.75;0.90;;;14.60;95.10;;;;;;6187529;23;20051;-94
2021/05/21 11:51:45;;;;;;;0.88;0.70;;;14.40;95.10;;;;;;6214286;23;20021;-94
2021/05/21 11:54:15;;;;;;;1.40;0.70;;;14.40;96.20;;;;;;6187433;23;20040;-93
2021/05/21 11:56:43;;;;;;;0.80;0.80;;;14.20;94.60;;;;;;6212653;23;20047;-90
2021/05/21 11:59:20;;;;;;;0.82;0.70;;;14.10;95.20;;;;;;6186586;23;20072;-92
2021/05/21 12:02:08;;;;;;;1.73;0.70;;;13.90;94.20;;;;;;6190430;23;20471;-91
2021/05/21 12:04:53;;;;;;;3.45;0.80;;;13.80;93.50;;;;;;6193192;23;20110;-89
2021/05/21 12:07:35;;;;;;;1.65;0.85;;;13.80;92.10;;;;;;6217884;23;20028;-92
2021/05/21 12:10:06;;;;;;;2.72;0.80;;;13.70;91.60;;;;;;6191372;23;20471;-90
2021/05/21 12:12:45;;;;;;;2.65;1.10;;;13.70;92.30;;;;;;6216220;23;20100;-90
2021/05/21 12:15:24;;;;;;;0.65;0.55;;;13.70;91.50;;;;;;6215349;23;20016;-91
2021/05/21 12:18:11;;;;;;;1.05;0.93;;;13.80;91.70;;;;;;6216102;23;20024;-88
2021/05/21 12:20:38;;;;;;;1.58;0.95;;;13.80;91.30;;;;;;6189996;23;20024;-91
2021/05/21 12:23:09;;;;;;;1.35;0.68;;;13.80;91.50;;;;;;6214121;23;20036;-92
2021/05/21 12:25:39;;;;;;;2.00;0.82;;;13.90;91.90;;;;;;6188597;23;20112;-93
2021/05/21 12:28:06;;;;;;;1.67;0.80;;;14.00;91.40;;;;;;6214276;23;20056;-89
2021/05/21 12:30:33;;;;;;;0.73;0.70;;;14.00;91.20;;;;;;6188801;23;20388;-90
2021/05/21 12:33:00;;;;;;;1.52;1.10;;;13.90;91.00;;;;;;6214284;23;20033;-92
2021/05/21 12:35:48;;;;;;;1.13;0.77;;;13.80;90.90;;;;;;6214778;23;20020;-94
2021/05/21 12:38:15;;;;;;;1.27;1.00;;;13.80;91.00;;;;;;6188357;23;20020;-89
2021/05/21 12:40:49;;;;;;;2.75;0.90;;;13.80;90.70;;;;;;6188026;23;20021;-92
2021/05/21 12:43:17;;;;;;;3.17;0.90;;;13.70;90.40;;;;;;6192822;23;20051;-92
2021/05/21 12:46:07;;;;;;;1.25;1.13;;;13.60;91.40;;;;;;6217224;23;20096;-93
2021/05/21 12:48:44;;;;;;;2.28;0.90;;;13.60;91.70;;;;;;6219882;23;20020;-91
2021/05/21 12:51:17;;;;;;;1.58;0.80;;;13.60;91.90;;;;;;6220009;23;20043;-93
2021/05/21 12:53:45;;;;;;;0.80;0.80;;;13.50;91.50;;;;;;6191551;23;20048;-92
2021/05/21 12:56:32;;;;;;;3.95;0.90;;;13.40;91.00;;;;;;6191052;23;20030;-92
2021/05/21 12:59:05;;;;;;;1.15;1.02;;;13.40;90.50;;;;;;6218224;23;20017;-91
2021/05/21 13:01:34;;;;;;;1.38;0.93;;;13.40;90.50;;;;;;6217177;23;20020;-91
2021/05/21 13:04:10;;;;;;;1.15;0.80;;;13.40;90.30;;;;;;6161430;23;20128;-90
2021/05/21 13:06:38;;;;;;;3.55;1.40;;;13.30;90.80;;;;;;6211588;23;20719;-90
2021/05/21 13:09:07;;;;;;;2.35;1.00;;;13.20;91.50;;;;;;6216662;23;20048;-90
2021/05/21 13:12:00;;;;;;;2.13;0.80;;;13.30;91.80;;;;;;6216183;23;20021;-92
2021/05/21 13:14:33;;;;;;;3.72;1.75;;;13.30;91.30;;;;;;6191648;23;20021;-92
2021/05/21 13:17:09;;;;;;;7.03;3.08;;;13.10;92.70;;;;;;6217090;23;20041;-92
2021/05/21 13:20:14;;;;;;;2.05;1.13;;;13.10;92.30;;;;;;6217170;23;20021;-93
2021/05/21 13:23:33;;;;;;;1.23;1.00;;;13.10;92.10;;;;;;6215436;23;20021;-91
2021/05/21 13:26:13;;;;;;;2.22;1.33;;;13.10;92.70;;;;;;6215473;23;20028;-91
2021/05/21 13:28:51;;;;;;;1.77;1.13;;;13.20;94.10;;;;;;6192697;23;20170;-89
2021/05/21 13:31:23;;;;;;;1.23;0.90;;;13.10;94.10;;;;;;6217674;23;20020;-92
2021/05/21 13:33:50;;;;;;;1.23;0.88;;;13.10;94.60;;;;;;6194694;23;20020;-91
2021/05/21 13:36:17;;;;;;;1.25;0.95;;;13.20;94.50;;;;;;6192950;23;20462;-90
2021/05/21 13:38:44;;;;;;;0.88;0.80;;;13.00;95.10;;;;;;6216382;23;20307;-91
2021/05/21 13:41:16;;;;;;;3.13;1.30;;;13.00;95.20;;;;;;6216475;23;20107;-93
2021/05/21 13:43:44;;;;;;;0.77;0.73;;;12.70;96.60;;;;;;6216432;23;20056;-90
2021/05/21 13:46:13;;;;;;;1.73;1.00;;;12.70;96.20;;;;;;6228333;23;20020;-92
2021/05/21 13:48:48;;;;;;;1.55;1.20;;;12.60;96.70;;;;;;6204818;23;20068;-91
2021/05/21 13:51:15;;;;;;;3.10;0.90;;;12.60;96.80;;;;;;6233929;23;20021;-91
2021/05/21 13:53:45;;;;;;;3.03;1.13;;;12.60;97.70;;;;;;6231220;23;20020;-92
2021/05/21 13:56:17;;;;;;;1.38;0.70;;;12.60;98.20;;;;;;6236185;23;20008;-90
2021/05/21 13:58:56;;;;;;;;;;;12.60;96.90;;;;;;6204740;23;20028;-91